Campanya meteocatpedra

Dades EMA Salòria (2.451 m)

?
?
Resum diari
Dades diàries de l'estació meteorològica
Temperatura mitjana 1.3 °C
Temperatura màxima 4.1 °C 15:09 TU
Temperatura mínima -1.6 °C 4:41 TU
Humitat relativa mitjana 86%
Precipitació acumulada 0.3 mm
Gruix de neu màxim 0 cm
Ratxa màxima del vent (10 m) 65.5 km/h - 344º 15:59 TU
Irradiació solar global 17.6 MJ/m2

El tram horari està expressat en Temps Universal (TU). Cal sumar una hora en horari d'hivern i dues en horari d'estiu per passar a l'hora oficial.

Salòria (2.451 m)

Metadades estació meteorol´gica
Municipi Alins
Comarca Pallars Sobirà
Altitud 2451 m
Data alta 30.09.2004
Estat actual Operativa
Dades de període
Període
TU
TM
°C
TX
°C
TN
°C
HRM
%
PPT
mm
GN
cm
VVM (10 m)
km/h
DVM (10 m)
graus
VVX (10 m)
km/h
RS
W/m2
00:00 - 00:30 -0.2 0.0 -0.3 82 0.0 0 15.5 347 20.9 0
00:30 - 01:00 -0.3 -0.1 -0.4 82 0.0 0 14.4 345 18.7 0
01:00 - 01:30 -0.3 -0.3 -0.4 80 0.0 0 13.7 331 19.1 0
01:30 - 02:00 -0.4 -0.3 -0.4 79 0.0 0 8.3 353 12.6 0
02:00 - 02:30 -0.2 -0.2 -0.3 76 0.0 0 8.3 11 13.0 0
02:30 - 03:00 -0.2 -0.2 -0.5 77 0.0 0 10.8 4 13.3 0
03:00 - 03:30 -1.0 -0.5 -1.3 87 0.0 0 12.6 346 18.4 0
03:30 - 04:00 -1.0 -0.7 -1.4 86 0.0 0 17.6 346 23.4 0
04:00 - 04:30 -1.3 -1.2 -1.5 88 0.0 0 19.4 346 24.1 2
04:30 - 05:00 -1.5 -1.1 -1.6 88 0.0 0 20.9 2 27.7 42
05:00 - 05:30 -0.9 -0.7 -1.1 83 0.0 0 23.8 12 34.9 68
05:30 - 06:00 -0.7 -0.6 -0.8 83 0.0 0 22.0 355 28.4 51
06:00 - 06:30 -0.4 0.0 -0.7 85 0.0 0 25.2 357 31.3 214
06:30 - 07:00 -0.2 0.0 -0.3 86 0.0 0 27.0 359 34.2 237
07:00 - 07:30 0.2 0.4 0.0 86 0.0 0 27.4 4 39.6 289
07:30 - 08:00 0.4 0.7 0.2 85 0.0 0 30.6 9 44.6 364
08:00 - 08:30 0.9 1.1 0.7 85 0.0 0 32.4 7 45.7 292
08:30 - 09:00 1.3 1.6 1.0 83 0.0 0 30.2 5 41.4 490
09:00 - 09:30 1.8 2.1 1.5 82 0.0 0 22.7 4 36.7 406
09:30 - 10:00 2.2 2.3 1.9 80 0.0 0 18.7 1 32.4 536
10:00 - 10:30 2.4 2.7 2.1 82 0.0 0 15.1 350 23.8 446
10:30 - 11:00 2.3 2.8 1.9 85 0.0 0 16.9 345 28.8 425
11:00 - 11:30 2.8 3.2 2.5 83 0.0 0 17.3 0 33.1 728
11:30 - 12:00 2.3 2.9 1.9 90 0.0 0 22.0 1 34.9 542
12:00 - 12:30 3.2 3.8 2.5 83 0.0 0 28.8 358 42.1 774
12:30 - 13:00 3.2 3.6 2.8 85 0.0 0 26.6 351 36.0 817
13:00 - 13:30 3.6 3.8 3.2 80 0.0 0 30.6 355 43.6 496
13:30 - 14:00 3.7 4.1 3.3 79 0.0 0 34.9 354 45.0 532
14:00 - 14:30 3.7 4.0 3.4 80 0.0 0 35.3 355 46.4 355
14:30 - 15:00 3.6 3.9 3.4 81 0.0 0 38.5 353 50.8 353
15:00 - 15:30 3.8 4.1 3.6 79 0.0 0 44.6 353 57.6 492
15:30 - 16:00 3.5 3.8 3.3 81 0.0 0 45.0 352 65.5 250
16:00 - 16:30 3.2 3.4 3.0 84 0.0 0 41.0 350 59.4 135
16:30 - 17:00 3.0 3.2 2.8 85 0.0 0 42.1 351 56.2 150
17:00 - 17:30 2.7 2.8 2.6 86 0.0 0 44.3 357 58.3 80
17:30 - 18:00 2.6 2.7 2.5 88 0.0 0 41.0 355 61.9 65
18:00 - 18:30 2.3 2.5 2.1 90 0.0 0 39.6 351 55.1 56
18:30 - 19:00 2.1 2.3 1.8 91 0.0 0 36.7 351 46.8 71
19:00 - 19:30 1.5 1.8 1.4 94 0.0 0 34.2 352 43.6 9
19:30 - 20:00 1.4 1.4 1.3 96 0.0 0 32.8 354 41.0 1
20:00 - 20:30 1.3 1.4 1.3 96 0.3 0 29.5 354 39.2 0
20:30 - 21:00 1.3 1.4 1.3 96 0.0 0 25.9 347 34.9 0
21:00 - 21:30 1.3 1.4 1.2 96 0.0 0 24.5 345 32.0 0
21:30 - 22:00 1.2 1.3 1.2 96 0.0 0 20.5 340 28.4 0
22:00 - 22:30 1.2 1.3 1.2 96 0.0 0 21.2 354 27.7 0
22:30 - 23:00 1.1 1.3 0.9 96 0.0 0 23.0 4 36.7 0
23:00 - 23:30 0.9 1.0 0.9 96 0.0 0 28.1 4 38.2 0
23:30 - 00:00 0.8 0.9 0.6 96 0.0 0 37.1 353 49.7 0

Les dades en taronja només han passat un control de qualitat automàtic. Resta pendent la seva validació definitiva.